Time;durP1;ratioP1;P1;durP2;ratioP2;P2;SDS_P1;SDS_P2;PMS_P1;PMS_P2;Temp;Humidity;BMP_temperature;BMP_pressure;BME280_temperature;BME280_humidity;BME280_pressure;Samples;Min_cycle;Max_cycle;Signal;HPM_P1;HPM_P2
2023/10/15 00:00:45;;;;;;;17.20;15.77;;;13.10;99.90;;;;;;5225277;28;20028;-74
2023/10/15 00:03:16;;;;;;;20.88;18.98;;;13.00;99.90;;;;;;5225421;28;20029;-75
2023/10/15 00:05:48;;;;;;;16.08;14.68;;;13.10;99.90;;;;;;5225301;28;20476;-75
2023/10/15 00:08:19;;;;;;;17.42;15.60;;;12.90;99.90;;;;;;5225528;28;20028;-78
2023/10/15 00:10:50;;;;;;;18.25;16.65;;;12.90;99.90;;;;;;5225522;28;20063;-75
2023/10/15 00:13:21;;;;;;;16.95;15.30;;;12.70;99.90;;;;;;5225227;28;20381;-73
2023/10/15 00:15:56;;;;;;;15.88;14.27;;;12.90;99.90;;;;;;5225701;28;20029;-82
2023/10/15 00:18:27;;;;;;;13.05;11.73;;;12.70;99.90;;;;;;5229311;28;20033;-81
2023/10/15 00:21:11;;;;;;;15.45;13.90;;;12.70;99.90;;;;;;5229151;28;20029;-73
2023/10/15 00:23:44;;;;;;;15.32;11.95;;;12.60;99.90;;;;;;5229080;28;20108;-74
2023/10/15 00:26:15;;;;;;;13.55;12.35;;;12.80;99.90;;;;;;5228678;28;20041;-73
2023/10/15 00:28:46;;;;;;;14.18;12.75;;;12.70;99.90;;;;;;5228340;28;20017;-73
2023/10/15 00:31:17;;;;;;;15.32;13.82;;;12.80;99.90;;;;;;5227847;28;20048;-74
2023/10/15 00:33:48;;;;;;;15.02;13.70;;;12.70;99.90;;;;;;5227573;28;20045;-73
2023/10/15 00:36:19;;;;;;;12.43;11.18;;;12.60;99.90;;;;;;5227748;28;20028;-73
2023/10/15 00:38:50;;;;;;;13.82;12.25;;;12.60;99.90;;;;;;5228017;28;20037;-75
2023/10/15 00:41:21;;;;;;;12.73;11.10;;;12.40;99.90;;;;;;5228210;28;20352;-74
2023/10/15 00:43:55;;;;;;;10.82;9.82;;;12.30;99.90;;;;;;5228388;28;20040;-74
2023/10/15 00:46:32;;;;;;;11.05;9.98;;;12.50;99.90;;;;;;5228816;28;20033;-74
2023/10/15 00:49:14;;;;;;;10.77;9.77;;;12.40;99.90;;;;;;5228879;28;20044;-74
2023/10/15 00:51:46;;;;;;;12.75;11.10;;;12.60;99.90;;;;;;5229015;28;20082;-77
2023/10/15 00:54:17;;;;;;;12.63;11.32;;;12.60;99.90;;;;;;5228581;28;20099;-74
2023/10/15 00:56:54;;;;;;;11.95;10.93;;;12.70;99.90;;;;;;5228548;28;20021;-74
2023/10/15 00:59:43;;;;;;;12.20;10.95;;;12.70;99.90;;;;;;5228618;28;20024;-74
2023/10/15 01:02:22;;;;;;;12.85;11.57;;;12.60;99.90;;;;;;5228654;28;20387;-73
2023/10/15 01:04:58;;;;;;;11.52;10.32;;;12.50;99.90;;;;;;5228359;28;20041;-77
2023/10/15 01:07:45;;;;;;;12.30;10.00;;;12.50;99.90;;;;;;5228509;28;20387;-73
2023/10/15 01:10:29;;;;;;;10.32;9.32;;;12.50;99.90;;;;;;5228512;28;20115;-76
2023/10/15 01:13:05;;;;;;;9.90;8.77;;;12.30;99.90;;;;;;5228225;28;20096;-73
2023/10/15 01:15:41;;;;;;;12.90;8.55;;;12.30;99.90;;;;;;5228317;28;20395;-74
2023/10/15 01:18:12;;;;;;;12.85;8.73;;;12.30;99.90;;;;;;5228407;28;20025;-73
2023/10/15 01:20:43;;;;;;;9.38;8.48;;;12.30;99.90;;;;;;5227564;28;20079;-81
2023/10/15 01:23:43;;;;;;;10.52;8.25;;;12.30;99.90;;;;;;5227976;28;20025;-73
2023/10/15 01:26:23;;;;;;;9.95;8.68;;;12.20;99.90;;;;;;5227048;28;20450;-81
2023/10/15 01:28:54;;;;;;;8.38;7.47;;;12.30;99.90;;;;;;5226624;28;20025;-73
2023/10/15 01:31:25;;;;;;;12.55;8.73;;;12.10;99.90;;;;;;5226649;28;20774;-78
2023/10/15 01:33:56;;;;;;;10.23;9.23;;;12.20;99.90;;;;;;5226629;28;20084;-74
2023/10/15 01:36:28;;;;;;;10.27;9.15;;;12.20;99.90;;;;;;5226769;28;20033;-76
2023/10/15 01:39:09;;;;;;;10.05;8.82;;;12.00;99.90;;;;;;5227452;28;20380;-73
2023/10/15 01:41:40;;;;;;;10.50;9.38;;;12.00;99.90;;;;;;5228038;28;20063;-82
2023/10/15 01:44:11;;;;;;;10.95;9.55;;;12.10;99.90;;;;;;5227722;28;20474;-73
2023/10/15 01:46:48;;;;;;;11.55;9.95;;;12.20;99.90;;;;;;5227765;28;20037;-73
2023/10/15 01:49:31;;;;;;;9.55;8.70;;;11.90;99.90;;;;;;5227992;28;20049;-73
2023/10/15 01:52:09;;;;;;;9.68;8.65;;;12.00;99.90;;;;;;5228507;28;20426;-73
2023/10/15 01:54:45;;;;;;;10.15;8.10;;;12.10;99.90;;;;;;5210180;28;20096;-78
2023/10/15 01:57:16;;;;;;;9.73;8.77;;;12.40;99.90;;;;;;5227752;28;20021;-74
2023/10/15 01:59:47;;;;;;;12.15;8.60;;;12.20;99.90;;;;;;5209546;28;20070;-73
2023/10/15 02:02:22;;;;;;;11.48;9.60;;;12.10;99.90;;;;;;5227378;28;21097;-76
2023/10/15 02:04:57;;;;;;;12.15;9.30;;;12.00;99.90;;;;;;5227269;28;20051;-76
2023/10/15 02:07:30;;;;;;;10.30;9.23;;;11.70;99.90;;;;;;5227502;28;20047;-74
2023/10/15 02:10:05;;;;;;;10.90;9.32;;;12.00;99.90;;;;;;5227528;28;20020;-81
2023/10/15 02:12:35;;;;;;;11.85;10.02;;;11.70;99.90;;;;;;5227343;28;20025;-74
2023/10/15 02:15:15;;;;;;;13.27;11.05;;;11.90;99.90;;;;;;5226963;28;20375;-74
2023/10/15 02:17:46;;;;;;;11.55;9.68;;;11.90;99.90;;;;;;5226593;28;20032;-81
2023/10/15 02:20:25;;;;;;;11.45;9.85;;;12.10;99.90;;;;;;5226219;28;20029;-73
2023/10/15 02:22:57;;;;;;;14.65;10.45;;;12.10;99.90;;;;;;5225915;28;20028;-74
2023/10/15 02:25:34;;;;;;;12.02;10.77;;;12.00;99.90;;;;;;5225730;28;20041;-73
2023/10/15 02:28:05;;;;;;;11.27;9.05;;;12.00;99.90;;;;;;5225554;28;20021;-73
2023/10/15 02:30:39;;;;;;;14.15;9.15;;;12.00;99.90;;;;;;5225537;28;20549;-80
2023/10/15 02:33:16;;;;;;;11.02;9.90;;;11.90;99.90;;;;;;5224972;28;20084;-74
2023/10/15 02:35:47;;;;;;;17.15;11.35;;;12.00;99.90;;;;;;5226431;28;20028;-73
2023/10/15 02:38:18;;;;;;;15.10;11.00;;;12.10;99.90;;;;;;5226342;28;20025;-78
2023/10/15 02:41:05;;;;;;;11.82;9.88;;;11.90;99.90;;;;;;5226238;28;20037;-73
2023/10/15 02:43:36;;;;;;;11.00;9.63;;;11.90;99.90;;;;;;5226646;28;20013;-73
2023/10/15 02:46:23;;;;;;;11.00;9.75;;;11.90;99.90;;;;;;5226554;28;20039;-73
2023/10/15 02:48:54;;;;;;;11.80;10.05;;;12.10;99.90;;;;;;5208644;28;20021;-74
2023/10/15 02:51:25;;;;;;;12.98;11.07;;;11.90;99.90;;;;;;5226411;28;20058;-74
2023/10/15 02:54:03;;;;;;;12.77;9.35;;;11.80;99.90;;;;;;5226237;28;20033;-73
2023/10/15 02:56:34;;;;;;;11.88;10.60;;;11.90;99.90;;;;;;5226411;28;20131;-73
2023/10/15 02:59:05;;;;;;;11.23;10.02;;;11.90;99.90;;;;;;5226210;28;20416;-73
2023/10/15 03:01:36;;;;;;;11.32;10.23;;;11.60;99.90;;;;;;5226202;28;20472;-73
2023/10/15 03:04:09;;;;;;;11.05;10.02;;;11.70;99.90;;;;;;5226048;28;20037;-74
2023/10/15 03:06:41;;;;;;;11.15;10.05;;;11.70;99.90;;;;;;5226093;28;20028;-74
2023/10/15 03:09:12;;;;;;;12.65;11.00;;;11.60;99.90;;;;;;5225991;28;20104;-77
2023/10/15 03:11:50;;;;;;;12.75;10.75;;;11.70;99.90;;;;;;5225620;28;20108;-73
2023/10/15 03:14:24;;;;;;;11.73;10.52;;;11.50;99.90;;;;;;5225730;28;20419;-74
2023/10/15 03:16:56;;;;;;;12.75;9.85;;;11.70;99.90;;;;;;5224879;28;20035;-73
2023/10/15 03:19:32;;;;;;;11.80;9.80;;;11.60;99.90;;;;;;5224821;28;20099;-74
2023/10/15 03:22:08;;;;;;;14.60;12.25;;;11.60;99.90;;;;;;5224838;28;20040;-79
2023/10/15 03:24:43;;;;;;;21.42;15.68;;;11.60;99.90;;;;;;5224777;28;20037;-74
2023/10/15 03:27:16;;;;;;;16.52;15.02;;;11.60;99.90;;;;;;5224764;28;20683;-76
2023/10/15 03:29:47;;;;;;;15.15;13.70;;;11.60;99.90;;;;;;5206667;28;20124;-74
2023/10/15 03:32:18;;;;;;;13.43;12.13;;;11.60;99.90;;;;;;5225679;28;20108;-74
2023/10/15 03:34:59;;;;;;;14.10;12.82;;;11.60;99.90;;;;;;5225660;28;20055;-74
2023/10/15 03:37:31;;;;;;;13.52;12.23;;;11.60;99.90;;;;;;5225754;28;20191;-75
2023/10/15 03:40:10;;;;;;;16.60;13.40;;;11.60;99.90;;;;;;5225679;28;20480;-75
2023/10/15 03:42:41;;;;;;;17.55;13.60;;;11.80;99.90;;;;;;5225552;28;20372;-83
2023/10/15 03:45:17;;;;;;;13.60;12.02;;;11.70;99.90;;;;;;5225423;28;20048;-76
2023/10/15 03:47:57;;;;;;;14.90;12.27;;;11.70;99.90;;;;;;5225731;28;20029;-74
2023/10/15 03:50:29;;;;;;;16.20;13.55;;;11.70;99.90;;;;;;5227010;28;20071;-76
2023/10/15 03:53:00;;;;;;;16.85;12.63;;;11.80;99.90;;;;;;5229863;28;20456;-76
2023/10/15 03:55:30;;;;;;;18.35;12.98;;;11.60;99.90;;;;;;5229844;28;20028;-74
2023/10/15 03:58:02;;;;;;;12.50;11.00;;;11.70;99.90;;;;;;5229740;28;20025;-75
2023/10/15 04:00:37;;;;;;;16.45;12.27;;;11.70;99.90;;;;;;5229756;28;20017;-73
2023/10/15 04:03:25;;;;;;;15.07;12.00;;;11.60;99.90;;;;;;5229881;28;20076;-75
2023/10/15 04:06:08;;;;;;;16.73;12.88;;;11.50;99.90;;;;;;5229800;28;20033;-74
2023/10/15 04:08:40;;;;;;;13.48;11.90;;;11.40;99.90;;;;;;5229210;28;20028;-83
2023/10/15 04:11:11;;;;;;;18.90;14.75;;;11.50;99.90;;;;;;5229358;28;20068;-74
2023/10/15 04:13:45;;;;;;;15.00;13.15;;;11.50;99.90;;;;;;5228423;28;20027;-74
2023/10/15 04:16:16;;;;;;;15.68;13.98;;;11.40;99.90;;;;;;5228301;28;20090;-76
2023/10/15 04:18:47;;;;;;;12.02;10.80;;;11.50;99.90;;;;;;5228580;28;20623;-75
2023/10/15 04:21:20;;;;;;;15.02;12.15;;;11.60;99.90;;;;;;5228341;28;20162;-76
2023/10/15 04:23:53;;;;;;;13.93;11.90;;;11.80;99.90;;;;;;5228060;28;20025;-73
2023/10/15 04:26:28;;;;;;;15.13;12.48;;;11.60;99.90;;;;;;5228269;28;20087;-73
2023/10/15 04:29:06;;;;;;;16.10;12.63;;;11.60;99.90;;;;;;5229366;28;20021;-79
2023/10/15 04:31:37;;;;;;;14.05;12.48;;;11.30;99.90;;;;;;5229217;28;20036;-74
2023/10/15 04:34:14;;;;;;;15.80;12.98;;;11.50;99.90;;;;;;5229122;28;20064;-82
2023/10/15 04:36:45;;;;;;;15.88;12.15;;;11.40;99.90;;;;;;5229568;28;20091;-73
2023/10/15 04:39:21;;;;;;;12.70;11.50;;;11.50;99.90;;;;;;5229317;28;20021;-79
2023/10/15 04:41:55;;;;;;;13.40;12.07;;;11.40;99.90;;;;;;5228976;28;20055;-74
2023/10/15 04:44:31;;;;;;;15.00;13.40;;;11.30;99.90;;;;;;5228862;28;20033;-74
2023/10/15 04:47:05;;;;;;;14.05;12.57;;;11.40;99.90;;;;;;5229127;28;20058;-77
2023/10/15 04:49:36;;;;;;;18.08;13.07;;;11.60;99.90;;;;;;5228815;28;20024;-74
2023/10/15 04:52:14;;;;;;;14.85;13.35;;;11.70;99.90;;;;;;5228813;28;20029;-77
2023/10/15 04:54:45;;;;;;;15.80;12.95;;;11.50;99.90;;;;;;5228937;28;20025;-73
2023/10/15 04:57:16;;;;;;;13.55;12.23;;;11.60;99.90;;;;;;5228454;28;20021;-74
2023/10/15 04:59:47;;;;;;;14.20;12.65;;;11.70;99.90;;;;;;5228638;28;20052;-73
2023/10/15 05:02:18;;;;;;;15.80;13.82;;;11.60;99.90;;;;;;5227753;28;20069;-80
2023/10/15 05:04:49;;;;;;;15.30;13.70;;;11.70;99.90;;;;;;5209866;28;20119;-74
2023/10/15 05:07:20;;;;;;;14.48;13.07;;;11.80;99.90;;;;;;5227954;28;20104;-75
2023/10/15 05:09:51;;;;;;;14.98;13.57;;;11.40;99.90;;;;;;5227254;28;20388;-77
2023/10/15 05:12:22;;;;;;;15.32;13.82;;;11.80;99.90;;;;;;5227002;28;20782;-76
2023/10/15 05:14:53;;;;;;;15.57;14.05;;;11.90;99.90;;;;;;5227011;28;20033;-82
2023/10/15 05:17:24;;;;;;;21.45;19.35;;;11.70;99.90;;;;;;5209218;28;20035;-74
2023/10/15 05:19:55;;;;;;;96.45;51.42;;;11.90;99.90;;;;;;5227058;28;20025;-75
2023/10/15 05:22:26;;;;;;;77.78;44.53;;;12.00;99.90;;;;;;5227083;28;20025;-74
2023/10/15 05:24:58;;;;;;;88.75;53.20;;;12.10;99.90;;;;;;5228113;28;20211;-83
2023/10/15 05:27:29;;;;;;;84.50;52.63;;;12.30;99.90;;;;;;5228094;28;20029;-82
2023/10/15 05:30:00;;;;;;;48.13;35.53;;;12.30;99.90;;;;;;5210282;28;20115;-74
2023/10/15 05:32:31;;;;;;;38.85;30.40;;;12.10;99.90;;;;;;5227980;28;20021;-74
2023/10/15 05:35:03;;;;;;;37.50;30.92;;;12.30;99.90;;;;;;5227485;28;20518;-75
2023/10/15 05:37:39;;;;;;;35.00;29.05;;;12.80;99.90;;;;;;5227986;28;20024;-82
2023/10/15 05:40:15;;;;;;;30.98;26.55;;;12.70;99.90;;;;;;5227629;28;20050;-81
2023/10/15 05:42:46;;;;;;;26.48;20.85;;;13.00;99.90;;;;;;5227565;28;20100;-77
2023/10/15 05:45:18;;;;;;;30.35;23.02;;;13.20;99.90;;;;;;5227544;28;20602;-74
2023/10/15 05:47:49;;;;;;;33.42;19.35;;;13.20;99.90;;;;;;5227678;28;20459;-79
2023/10/15 05:50:20;;;;;;;21.92;16.75;;;13.30;99.90;;;;;;5227455;28;20024;-80
2023/10/15 05:52:51;;;;;;;21.25;17.08;;;13.60;99.90;;;;;;5227348;28;20035;-77
2023/10/15 05:55:22;;;;;;;18.73;16.42;;;13.60;99.90;;;;;;5209643;28;20021;-74
2023/10/15 05:57:53;;;;;;;20.30;17.17;;;13.80;99.90;;;;;;5227322;28;20020;-79
2023/10/15 06:00:26;;;;;;;27.95;17.30;;;13.80;99.90;;;;;;5226947;28;20586;-80
2023/10/15 06:02:58;;;;;;;21.00;17.70;;;14.00;99.90;;;;;;5226978;28;20060;-74
2023/10/15 06:05:30;;;;;;;25.05;19.10;;;14.00;99.90;;;;;;5226044;28;20033;-77
2023/10/15 06:08:02;;;;;;;19.77;16.73;;;14.20;99.90;;;;;;5226243;28;20024;-75
2023/10/15 06:10:33;;;;;;;20.40;17.40;;;14.30;99.90;;;;;;5226727;28;20542;-82
2023/10/15 06:13:04;;;;;;;20.90;17.73;;;14.60;99.90;;;;;;5225686;28;20049;-80
2023/10/15 06:15:34;;;;;;;19.00;16.38;;;14.40;99.90;;;;;;5225018;28;20067;-74
2023/10/15 06:18:05;;;;;;;20.55;16.98;;;14.50;99.90;;;;;;5225712;28;20032;-75
2023/10/15 06:20:36;;;;;;;19.65;16.27;;;14.70;99.90;;;;;;5226861;28;20025;-76
2023/10/15 06:23:08;;;;;;;17.85;15.55;;;14.90;99.90;;;;;;5226980;28;20487;-79
2023/10/15 06:25:38;;;;;;;19.15;15.90;;;15.00;99.90;;;;;;5226889;28;20044;-74
2023/10/15 06:28:13;;;;;;;17.88;16.00;;;15.30;99.90;;;;;;5226980;28;20482;-76
2023/10/15 06:30:45;;;;;;;16.40;14.70;;;15.30;99.90;;;;;;5227021;28;20036;-74
2023/10/15 06:33:18;;;;;;;16.55;14.95;;;15.50;99.90;;;;;;5226066;28;20045;-75
2023/10/15 06:35:51;;;;;;;17.00;15.27;;;15.70;99.90;;;;;;5226768;28;20087;-79
2023/10/15 06:38:22;;;;;;;18.50;16.70;;;16.00;99.90;;;;;;5227119;28;20075;-79
2023/10/15 06:40:53;;;;;;;36.10;16.08;;;16.20;99.90;;;;;;5226335;28;20056;-75
2023/10/15 06:43:23;;;;;;;19.85;16.75;;;16.20;99.90;;;;;;5225805;28;20029;-75
2023/10/15 06:45:54;;;;;;;19.35;17.35;;;16.40;99.90;;;;;;5226222;28;20091;-75
2023/10/15 06:48:25;;;;;;;20.45;18.55;;;16.60;99.90;;;;;;5225672;28;20063;-83
2023/10/15 06:50:56;;;;;;;20.45;17.92;;;16.70;99.90;;;;;;5225715;28;20020;-77
2023/10/15 06:53:27;;;;;;;22.63;20.42;;;16.90;99.90;;;;;;5225822;28;20483;-80
2023/10/15 06:55:58;;;;;;;21.88;19.98;;;16.90;99.90;;;;;;5225639;28;20035;-77
2023/10/15 06:58:29;;;;;;;21.45;19.48;;;17.10;99.90;;;;;;5225246;28;20033;-74
2023/10/15 07:01:00;;;;;;;16.48;14.77;;;16.90;99.90;;;;;;5224981;28;20028;-78
2023/10/15 07:03:31;;;;;;;19.58;17.73;;;17.20;99.90;;;;;;5205590;28;20115;-74
2023/10/15 07:06:02;;;;;;;16.52;14.82;;;17.30;99.90;;;;;;5224745;28;20140;-73
2023/10/15 07:08:33;;;;;;;21.45;15.50;;;17.50;99.90;;;;;;5224835;28;20036;-74
2023/10/15 07:11:05;;;;;;;19.40;15.80;;;17.70;99.90;;;;;;5224806;28;20029;-75
2023/10/15 07:13:36;;;;;;;18.23;16.35;;;18.00;99.90;;;;;;5224650;28;20021;-74
2023/10/15 07:16:07;;;;;;;19.30;16.58;;;18.10;99.90;;;;;;5225499;28;20024;-73
2023/10/15 07:18:39;;;;;;;18.50;16.60;;;18.30;99.90;;;;;;5208454;28;20087;-76
2023/10/15 07:21:10;;;;;;;19.75;16.45;;;18.20;99.90;;;;;;5226060;28;20091;-73
2023/10/15 07:23:41;;;;;;;21.65;18.15;;;18.60;99.90;;;;;;5225566;28;20032;-73
2023/10/15 07:26:12;;;;;;;21.25;17.98;;;18.80;99.90;;;;;;5207426;28;20064;-73
2023/10/15 07:28:43;;;;;;;19.45;17.45;;;18.80;99.90;;;;;;5225812;28;20067;-74
2023/10/15 07:31:14;;;;;;;19.55;17.42;;;18.90;99.90;;;;;;5225664;28;20468;-73
2023/10/15 07:33:46;;;;;;;21.00;17.73;;;19.10;99.90;;;;;;5207323;28;20491;-73
2023/10/15 07:36:19;;;;;;;19.60;17.30;;;19.20;99.90;;;;;;5225448;28;20045;-77
2023/10/15 07:38:50;;;;;;;18.75;16.75;;;19.50;99.90;;;;;;5225619;28;20040;-73
2023/10/15 07:41:21;;;;;;;18.77;16.85;;;19.60;99.90;;;;;;5225495;28;20029;-76
2023/10/15 07:43:51;;;;;;;20.42;17.02;;;19.80;99.90;;;;;;5225288;28;20477;-74
2023/10/15 07:46:22;;;;;;;17.38;15.57;;;19.80;99.90;;;;;;5207611;28;20357;-77
2023/10/15 07:48:54;;;;;;;18.65;16.70;;;20.10;99.90;;;;;;5225517;28;20029;-75
2023/10/15 07:51:26;;;;;;;18.67;16.70;;;20.20;99.90;;;;;;5225393;28;20052;-74
2023/10/15 07:53:56;;;;;;;19.92;17.92;;;20.20;99.90;;;;;;5225120;28;20028;-73
2023/10/15 07:56:27;;;;;;;21.38;17.98;;;20.40;99.90;;;;;;5224797;28;20369;-74
2023/10/15 07:58:58;;;;;;;20.90;18.92;;;20.60;99.90;;;;;;5223678;28;20480;-73
2023/10/15 08:01:29;;;;;;;20.90;18.85;;;20.60;99.90;;;;;;5205877;28;20106;-74
2023/10/15 08:04:00;;;;;;;21.83;18.00;;;20.60;99.90;;;;;;5205774;28;20033;-73
2023/10/15 08:06:31;;;;;;;20.00;18.00;;;20.60;99.90;;;;;;5205929;28;20029;-74
2023/10/15 08:09:01;;;;;;;18.02;16.13;;;20.90;99.90;;;;;;5223465;28;20485;-74
2023/10/15 08:11:32;;;;;;;19.35;16.77;;;21.00;99.90;;;;;;5206176;28;20029;-73
2023/10/15 08:14:03;;;;;;;16.63;14.75;;;21.00;99.90;;;;;;5224766;28;20035;-73
2023/10/15 08:16:34;;;;;;;17.10;14.60;;;21.10;99.90;;;;;;5224705;28;20033;-75
2023/10/15 08:19:05;;;;;;;18.80;15.25;;;21.30;99.90;;;;;;5225288;28;20021;-74
2023/10/15 08:21:36;;;;;;;22.55;19.15;;;21.30;99.90;;;;;;5224348;28;20025;-77
2023/10/15 08:24:07;;;;;;;21.23;18.75;;;21.50;99.90;;;;;;5224743;28;20099;-75
2023/10/15 08:26:38;;;;;;;23.45;20.83;;;21.40;99.90;;;;;;5223630;28;20037;-74
2023/10/15 08:29:09;;;;;;;21.00;17.35;;;21.40;99.90;;;;;;5213955;28;20024;-74
2023/10/15 08:31:40;;;;;;;19.17;16.80;;;21.60;99.90;;;;;;5224983;28;20040;-78
2023/10/15 08:34:12;;;;;;;22.15;19.17;;;21.90;99.90;;;;;;5225014;28;20088;-74
2023/10/15 08:36:43;;;;;;;22.55;20.35;;;22.00;99.90;;;;;;5225150;28;20029;-76
2023/10/15 08:39:14;;;;;;;22.52;20.33;;;22.00;99.90;;;;;;5228485;28;20017;-75
2023/10/15 08:41:46;;;;;;;19.77;17.73;;;22.10;99.90;;;;;;5211042;28;20036;-73
2023/10/15 08:44:20;;;;;;;19.05;17.05;;;22.30;99.90;;;;;;5225479;28;20041;-74
2023/10/15 08:46:53;;;;;;;17.85;16.10;;;22.50;99.90;;;;;;5228308;28;20078;-73
2023/10/15 08:49:25;;;;;;;20.00;18.05;;;22.70;99.90;;;;;;5228212;28;20060;-78
2023/10/15 08:51:57;;;;;;;19.45;17.55;;;22.80;99.90;;;;;;5228542;28;20052;-73
2023/10/15 08:54:29;;;;;;;19.58;17.50;;;22.90;99.90;;;;;;5227557;28;20021;-74
2023/10/15 08:57:00;;;;;;;18.95;17.10;;;22.90;99.90;;;;;;5227477;28;20134;-74
2023/10/15 08:59:32;;;;;;;17.33;15.57;;;23.10;99.90;;;;;;5227688;28;20029;-74
2023/10/15 09:02:08;;;;;;;19.25;17.55;;;23.20;99.90;;;;;;5227319;28;20056;-74
2023/10/15 09:04:39;;;;;;;20.63;17.52;;;23.20;99.90;;;;;;5227309;28;20044;-74
2023/10/15 09:07:10;;;;;;;18.45;16.52;;;23.10;99.90;;;;;;5227385;28;20029;-78
2023/10/15 09:09:42;;;;;;;18.90;16.67;;;23.30;99.90;;;;;;5228731;28;20032;-73
2023/10/15 09:12:12;;;;;;;17.65;13.27;;;23.50;99.90;;;;;;5228643;28;20061;-77
2023/10/15 09:14:45;;;;;;;18.08;12.93;;;23.70;99.90;;;;;;5227925;28;20063;-77
2023/10/15 09:17:17;;;;;;;16.23;12.85;;;23.90;99.90;;;;;;5228447;28;20495;-74
2023/10/15 09:19:48;;;;;;;14.18;12.02;;;23.90;99.90;;;;;;5210246;28;20032;-74
2023/10/15 09:22:19;;;;;;;15.65;11.82;;;23.70;99.90;;;;;;5228251;28;20017;-73
2023/10/15 09:24:50;;;;;;;14.85;11.18;;;23.90;99.90;;;;;;5227942;28;20444;-77
2023/10/15 09:27:21;;;;;;;13.32;12.00;;;23.80;99.90;;;;;;5227953;28;20025;-77
2023/10/15 09:30:18;;;;;;;18.08;12.40;;;24.50;99.90;;;;;;5228078;28;20017;-74
2023/10/15 09:32:49;;;;;;;15.68;14.27;;;24.20;99.90;;;;;;5210179;28;20124;-74
2023/10/15 09:35:22;;;;;;;14.98;13.40;;;24.40;99.90;;;;;;5210177;28;20502;-74
2023/10/15 09:37:55;;;;;;;13.95;12.57;;;24.20;99.90;;;;;;5209922;28;20021;-74
2023/10/15 09:40:31;;;;;;;18.25;11.70;;;24.40;99.90;;;;;;5227925;28;20486;-74
2023/10/15 09:43:02;;;;;;;16.02;13.35;;;24.90;99.90;;;;;;5227784;28;20029;-74
2023/10/15 09:45:33;;;;;;;15.32;10.73;;;24.80;99.90;;;;;;5226798;28;20438;-74
2023/10/15 09:48:05;;;;;;;21.70;11.55;;;24.40;99.90;;;;;;5227192;28;20025;-73
2023/10/15 09:50:39;;;;;;;14.18;10.23;;;24.50;99.90;;;;;;5226098;28;20029;-73
2023/10/15 09:53:12;;;;;;;12.65;10.25;;;24.60;99.90;;;;;;5225327;28;20545;-74
2023/10/15 09:55:45;;;;;;;10.10;8.98;;;24.80;99.90;;;;;;5226100;28;20045;-73
2023/10/15 09:58:17;;;;;;;11.32;9.48;;;25.20;99.90;;;;;;5208316;28;20021;-74
2023/10/15 10:03:59;;;;;;;16.23;9.80;;;25.40;99.90;;;;;;5226304;28;20028;-74
2023/10/15 10:06:38;;;;;;;15.02;8.75;;;25.60;99.90;;;;;;5227397;28;20039;-75
2023/10/15 10:09:37;;;;;;;12.05;7.85;;;25.90;99.90;;;;;;5225825;28;20049;-76
2023/10/15 10:12:26;;;;;;;17.90;9.90;;;25.70;99.90;;;;;;5226382;28;20024;-74
2023/10/15 10:15:47;;;;;;;15.10;9.13;;;25.70;99.90;;;;;;5208745;28;20032;-78
2023/10/15 10:18:21;;;;;;;13.63;10.25;;;25.60;99.90;;;;;;5226658;28;20080;-75
2023/10/15 10:20:52;;;;;;;14.50;10.77;;;25.90;99.90;;;;;;5188695;28;20088;-73
2023/10/15 10:23:23;;;;;;;10.50;8.93;;;25.50;99.90;;;;;;5206570;28;20028;-75
2023/10/15 10:25:58;;;;;;;11.13;9.55;;;25.80;99.90;;;;;;5206221;28;20025;-78
2023/10/15 10:28:33;;;;;;;12.48;11.10;;;25.90;99.90;;;;;;5206139;28;20064;-74
2023/10/15 10:31:07;;;;;;;13.38;11.57;;;25.60;99.90;;;;;;5206144;28;20104;-74
2023/10/15 10:33:44;;;;;;;16.58;10.07;;;25.50;99.90;;;;;;5205855;28;20136;-74
2023/10/15 10:36:29;;;;;;;15.07;12.27;;;26.10;99.90;;;;;;5206149;28;20036;-73
2023/10/15 10:39:17;;;;;;;16.42;12.90;;;26.00;99.90;;;;;;5188405;28;20022;-73
2023/10/15 10:41:54;;;;;;;14.27;12.98;;;26.00;99.90;;;;;;5205367;28;20087;-74
2023/10/15 10:44:26;;;;;;;14.45;12.50;;;26.40;99.90;;;;;;5205547;28;20036;-74
2023/10/15 10:46:57;;;;;;;15.00;13.45;;;26.00;99.90;;;;;;5204657;28;20740;-73
2023/10/15 10:49:30;;;;;;;15.85;13.15;;;26.10;99.90;;;;;;5204849;28;20112;-74
2023/10/15 10:52:14;;;;;;;13.88;11.13;;;26.40;99.90;;;;;;5204874;28;20031;-74
2023/10/15 10:54:48;;;;;;;16.25;10.55;;;26.20;99.90;;;;;;5204834;28;20699;-74
2023/10/15 11:00:05;;;;;;;17.27;10.45;;;26.60;99.90;;;;;;5287771;23;20126;-73
2023/10/15 11:02:36;;;;;;;14.90;10.60;;;26.30;99.90;;;;;;5246908;28;20426;-73
2023/10/15 11:05:11;;;;;;;15.40;9.55;;;26.10;99.90;;;;;;5246625;28;20037;-74
2023/10/15 11:07:42;;;;;;;11.38;9.05;;;26.40;99.90;;;;;;5246308;28;20028;-77
2023/10/15 11:10:13;;;;;;;14.25;10.50;;;26.70;99.90;;;;;;5246739;28;20029;-77
2023/10/15 11:12:47;;;;;;;16.95;9.05;;;26.40;99.90;;;;;;5246591;28;20058;-74
2023/10/15 11:15:20;;;;;;;12.73;9.40;;;26.50;99.90;;;;;;5246109;28;20107;-73
2023/10/15 11:17:55;;;;;;;12.43;9.45;;;26.60;99.90;;;;;;5246583;28;20044;-72
2023/10/15 11:20:27;;;;;;;12.30;9.93;;;26.50;99.90;;;;;;5246459;28;20033;-73
2023/10/15 11:23:01;;;;;;;15.77;9.57;;;26.40;99.90;;;;;;5246627;28;20068;-72
2023/10/15 11:25:36;;;;;;;11.02;8.30;;;26.40;99.90;;;;;;5246647;28;20050;-72
2023/10/15 11:28:10;;;;;;;12.60;8.88;;;26.50;99.90;;;;;;5246398;28;20033;-72
2023/10/15 11:30:44;;;;;;;13.68;8.02;;;26.80;99.90;;;;;;5246452;28;20491;-73
2023/10/15 11:33:17;;;;;;;11.48;8.65;;;27.10;99.90;;;;;;5243291;28;20032;-72
2023/10/15 11:35:48;;;;;;;11.48;9.35;;;26.60;99.90;;;;;;5232725;28;20036;-74
2023/10/15 11:38:20;;;;;;;13.55;8.60;;;26.40;99.90;;;;;;5228059;28;20032;-72
2023/10/15 11:40:54;;;;;;;11.68;9.07;;;26.80;99.90;;;;;;5225191;28;20083;-73
2023/10/15 11:43:26;;;;;;;11.77;8.23;;;27.10;99.90;;;;;;5224340;28;20445;-75
2023/10/15 11:46:07;;;;;;;15.75;9.18;;;27.10;99.90;;;;;;5224431;28;20040;-73
2023/10/15 11:48:40;;;;;;;19.52;8.55;;;27.00;99.90;;;;;;5224377;28;20025;-74
2023/10/15 11:51:11;;;;;;;15.75;8.60;;;26.90;99.90;;;;;;5224376;28;20444;-73
2023/10/15 11:53:42;;;;;;;13.43;9.27;;;27.10;99.90;;;;;;5206420;28;20037;-73
2023/10/15 11:56:16;;;;;;;41.92;10.13;;;26.80;99.90;;;;;;5224840;28;20029;-76
2023/10/15 11:58:48;;;;;;;13.10;9.13;;;27.40;99.90;;;;;;5225131;28;20052;-73
2023/10/15 12:01:19;;;;;;;15.13;8.60;;;26.90;99.90;;;;;;5225393;28;20395;-73
2023/10/15 12:03:50;;;;;;;11.45;7.63;;;27.20;99.90;;;;;;5225554;28;20044;-73
2023/10/15 12:06:21;;;;;;;13.35;7.25;;;26.90;99.90;;;;;;5225376;28;20039;-72
2023/10/15 12:08:52;;;;;;;12.00;7.55;;;27.10;99.90;;;;;;5225649;28;20079;-73
2023/10/15 12:11:23;;;;;;;12.32;8.82;;;26.90;99.90;;;;;;5226718;28;20396;-72
2023/10/15 12:13:55;;;;;;;13.05;7.90;;;26.90;99.90;;;;;;5229845;28;20059;-72
2023/10/15 12:16:25;;;;;;;12.93;8.15;;;27.00;99.90;;;;;;5243195;28;20426;-72
2023/10/15 12:18:56;;;;;;;14.77;8.40;;;26.80;99.90;;;;;;5250119;28;20103;-74
2023/10/15 12:21:27;;;;;;;14.32;8.15;;;27.00;99.90;;;;;;5250079;28;20119;-73
2023/10/15 12:23:58;;;;;;;9.90;8.65;;;26.90;99.90;;;;;;5230923;28;20055;-73
2023/10/15 12:26:29;;;;;;;12.40;9.65;;;27.00;99.90;;;;;;5222659;28;20114;-72
2023/10/15 12:29:01;;;;;;;19.13;8.50;;;26.70;99.90;;;;;;5223966;28;20030;-72
2023/10/15 12:31:32;;;;;;;10.18;8.70;;;26.80;99.90;;;;;;5225234;28;20537;-73
2023/10/15 12:34:04;;;;;;;11.80;8.82;;;26.60;99.90;;;;;;5228247;28;20021;-72
2023/10/15 12:36:35;;;;;;;11.50;8.43;;;27.00;99.90;;;;;;5228813;28;20047;-73
2023/10/15 12:39:06;;;;;;;16.92;9.77;;;27.00;99.90;;;;;;5227622;28;20104;-73
2023/10/15 12:41:38;;;;;;;11.85;9.95;;;27.40;99.90;;;;;;5227771;28;20115;-74
2023/10/15 12:44:11;;;;;;;10.85;9.73;;;27.30;99.90;;;;;;5232775;28;20114;-73
2023/10/15 12:46:41;;;;;;;13.57;9.35;;;27.20;99.90;;;;;;5227707;28;20043;-73
2023/10/15 12:49:13;;;;;;;36.80;10.43;;;26.80;99.90;;;;;;5233207;28;20024;-73
2023/10/15 12:51:44;;;;;;;13.68;9.80;;;27.00;99.90;;;;;;5234047;28;20040;-73
2023/10/15 12:54:14;;;;;;;14.63;9.73;;;27.00;99.90;;;;;;5237663;28;20494;-73
2023/10/15 12:56:45;;;;;;;17.40;9.45;;;26.90;99.90;;;;;;5238823;28;20028;-73
2023/10/15 12:59:16;;;;;;;10.32;9.05;;;26.70;99.90;;;;;;5238807;28;20517;-73
2023/10/15 13:01:48;;;;;;;10.32;9.32;;;26.80;99.90;;;;;;5246781;28;20059;-73
2023/10/15 13:04:21;;;;;;;10.38;9.30;;;26.80;99.90;;;;;;5249107;28;20027;-75
2023/10/15 13:06:53;;;;;;;17.52;8.80;;;26.80;99.90;;;;;;5231225;28;20090;-72